sensor_id;sensor_type;location;lat;lon;timestamp;P1;durP1;ratioP1;P2;durP2;ratioP2
59587;SDS011;45412;54.472;18.464;2023-10-09T00:00:38;7.90;;;2.10;;
59587;SDS011;45412;54.472;18.464;2023-10-09T00:03:47;7.20;;;1.80;;
59587;SDS011;45412;54.472;18.464;2023-10-09T00:06:40;6.60;;;1.80;;
59587;SDS011;45412;54.472;18.464;2023-10-09T00:09:27;7.20;;;2.00;;
59587;SDS011;45412;54.472;18.464;2023-10-09T00:12:18;5.80;;;1.70;;
59587;SDS011;45412;54.472;18.464;2023-10-09T00:15:09;7.20;;;1.90;;
59587;SDS011;45412;54.472;18.464;2023-10-09T00:17:58;7.40;;;1.90;;
59587;SDS011;45412;54.472;18.464;2023-10-09T00:20:45;6.80;;;2.20;;
59587;SDS011;45412;54.472;18.464;2023-10-09T00:23:39;7.50;;;2.00;;
59587;SDS011;45412;54.472;18.464;2023-10-09T00:26:27;8.40;;;2.20;;
59587;SDS011;45412;54.472;18.464;2023-10-09T00:29:29;7.80;;;2.10;;
59587;SDS011;45412;54.472;18.464;2023-10-09T00:32:20;7.10;;;2.00;;
59587;SDS011;45412;54.472;18.464;2023-10-09T00:35:12;6.00;;;1.60;;
59587;SDS011;45412;54.472;18.464;2023-10-09T00:38:17;7.60;;;2.10;;
59587;SDS011;45412;54.472;18.464;2023-10-09T00:41:07;7.40;;;2.00;;
59587;SDS011;45412;54.472;18.464;2023-10-09T00:43:53;7.70;;;2.10;;
59587;SDS011;45412;54.472;18.464;2023-10-09T00:46:39;6.50;;;1.80;;
59587;SDS011;45412;54.472;18.464;2023-10-09T00:49:29;6.40;;;2.10;;
59587;SDS011;45412;54.472;18.464;2023-10-09T00:52:17;7.40;;;2.10;;
59587;SDS011;45412;54.472;18.464;2023-10-09T00:55:11;8.00;;;2.00;;
59587;SDS011;45412;54.472;18.464;2023-10-09T00:58:07;7.10;;;1.90;;
59587;SDS011;45412;54.472;18.464;2023-10-09T01:01:01;7.20;;;1.90;;
59587;SDS011;45412;54.472;18.464;2023-10-09T01:03:50;6.90;;;2.10;;
59587;SDS011;45412;54.472;18.464;2023-10-09T01:06:38;6.80;;;1.80;;
59587;SDS011;45412;54.472;18.464;2023-10-09T01:09:31;7.20;;;1.80;;
59587;SDS011;45412;54.472;18.464;2023-10-09T01:12:25;5.80;;;1.80;;
59587;SDS011;45412;54.472;18.464;2023-10-09T01:15:14;6.20;;;1.70;;
59587;SDS011;45412;54.472;18.464;2023-10-09T01:18:21;6.10;;;1.80;;
59587;SDS011;45412;54.472;18.464;2023-10-09T01:21:20;7.10;;;1.90;;
59587;SDS011;45412;54.472;18.464;2023-10-09T01:24:14;6.10;;;1.60;;
59587;SDS011;45412;54.472;18.464;2023-10-09T01:27:02;7.30;;;1.70;;
59587;SDS011;45412;54.472;18.464;2023-10-09T01:29:51;6.50;;;1.70;;
59587;SDS011;45412;54.472;18.464;2023-10-09T01:32:38;7.10;;;1.70;;
59587;SDS011;45412;54.472;18.464;2023-10-09T01:35:24;6.50;;;1.50;;
59587;SDS011;45412;54.472;18.464;2023-10-09T01:38:12;6.30;;;1.70;;
59587;SDS011;45412;54.472;18.464;2023-10-09T01:41:01;7.00;;;1.50;;
59587;SDS011;45412;54.472;18.464;2023-10-09T01:43:53;7.20;;;1.50;;
59587;SDS011;45412;54.472;18.464;2023-10-09T01:46:46;5.70;;;1.60;;
59587;SDS011;45412;54.472;18.464;2023-10-09T01:49:34;5.80;;;1.70;;
59587;SDS011;45412;54.472;18.464;2023-10-09T01:52:22;7.10;;;1.70;;
59587;SDS011;45412;54.472;18.464;2023-10-09T01:55:09;5.50;;;1.60;;
59587;SDS011;45412;54.472;18.464;2023-10-09T01:58:02;6.10;;;1.80;;
59587;SDS011;45412;54.472;18.464;2023-10-09T02:01:08;5.20;;;1.50;;
59587;SDS011;45412;54.472;18.464;2023-10-09T02:03:55;6.70;;;1.90;;
59587;SDS011;45412;54.472;18.464;2023-10-09T02:06:50;6.90;;;1.50;;
59587;SDS011;45412;54.472;18.464;2023-10-09T02:09:38;7.20;;;1.70;;
59587;SDS011;45412;54.472;18.464;2023-10-09T02:12:31;7.30;;;1.60;;
59587;SDS011;45412;54.472;18.464;2023-10-09T02:15:19;5.40;;;1.50;;
59587;SDS011;45412;54.472;18.464;2023-10-09T02:18:25;6.10;;;2.00;;
59587;SDS011;45412;54.472;18.464;2023-10-09T02:21:32;5.90;;;1.40;;
59587;SDS011;45412;54.472;18.464;2023-10-09T02:24:27;6.60;;;1.60;;
59587;SDS011;45412;54.472;18.464;2023-10-09T02:27:32;6.20;;;1.80;;
59587;SDS011;45412;54.472;18.464;2023-10-09T02:30:33;6.00;;;1.60;;
59587;SDS011;45412;54.472;18.464;2023-10-09T02:33:20;5.90;;;1.80;;
59587;SDS011;45412;54.472;18.464;2023-10-09T02:36:13;5.90;;;1.50;;
59587;SDS011;45412;54.472;18.464;2023-10-09T02:39:00;7.20;;;1.50;;
59587;SDS011;45412;54.472;18.464;2023-10-09T02:41:46;7.10;;;1.80;;
59587;SDS011;45412;54.472;18.464;2023-10-09T02:44:35;6.40;;;1.60;;
59587;SDS011;45412;54.472;18.464;2023-10-09T02:47:26;6.10;;;1.80;;
59587;SDS011;45412;54.472;18.464;2023-10-09T02:50:18;5.30;;;1.60;;
59587;SDS011;45412;54.472;18.464;2023-10-09T02:53:07;5.80;;;1.70;;
59587;SDS011;45412;54.472;18.464;2023-10-09T02:55:56;7.10;;;1.80;;
59587;SDS011;45412;54.472;18.464;2023-10-09T02:58:58;6.90;;;1.70;;
59587;SDS011;45412;54.472;18.464;2023-10-09T03:01:52;5.40;;;1.60;;
59587;SDS011;45412;54.472;18.464;2023-10-09T03:04:41;6.50;;;1.80;;
59587;SDS011;45412;54.472;18.464;2023-10-09T03:07:28;5.60;;;1.60;;
59587;SDS011;45412;54.472;18.464;2023-10-09T03:10:15;5.60;;;1.70;;
59587;SDS011;45412;54.472;18.464;2023-10-09T03:13:01;7.70;;;1.70;;
59587;SDS011;45412;54.472;18.464;2023-10-09T03:15:49;5.90;;;1.70;;
59587;SDS011;45412;54.472;18.464;2023-10-09T03:18:37;5.80;;;1.60;;
59587;SDS011;45412;54.472;18.464;2023-10-09T03:21:23;5.30;;;1.60;;
59587;SDS011;45412;54.472;18.464;2023-10-09T03:24:10;4.80;;;1.30;;
59587;SDS011;45412;54.472;18.464;2023-10-09T03:26:57;6.90;;;1.80;;
59587;SDS011;45412;54.472;18.464;2023-10-09T03:29:43;6.10;;;1.60;;
59587;SDS011;45412;54.472;18.464;2023-10-09T03:32:35;6.30;;;1.60;;
59587;SDS011;45412;54.472;18.464;2023-10-09T03:35:22;6.30;;;1.70;;
59587;SDS011;45412;54.472;18.464;2023-10-09T03:38:13;6.60;;;1.70;;
59587;SDS011;45412;54.472;18.464;2023-10-09T03:41:03;5.90;;;1.90;;
59587;SDS011;45412;54.472;18.464;2023-10-09T03:43:53;5.80;;;1.60;;
59587;SDS011;45412;54.472;18.464;2023-10-09T03:46:39;6.90;;;1.80;;
59587;SDS011;45412;54.472;18.464;2023-10-09T03:49:30;5.90;;;1.40;;
59587;SDS011;45412;54.472;18.464;2023-10-09T03:52:17;6.70;;;1.80;;
59587;SDS011;45412;54.472;18.464;2023-10-09T03:55:05;5.30;;;1.50;;
59587;SDS011;45412;54.472;18.464;2023-10-09T03:57:56;6.70;;;1.50;;
59587;SDS011;45412;54.472;18.464;2023-10-09T04:00:45;6.70;;;1.80;;
59587;SDS011;45412;54.472;18.464;2023-10-09T04:03:32;6.20;;;1.70;;
59587;SDS011;45412;54.472;18.464;2023-10-09T04:06:18;6.20;;;1.40;;
59587;SDS011;45412;54.472;18.464;2023-10-09T04:09:07;6.40;;;1.90;;
59587;SDS011;45412;54.472;18.464;2023-10-09T04:12:06;7.60;;;2.50;;
59587;SDS011;45412;54.472;18.464;2023-10-09T04:15:06;6.90;;;2.20;;
59587;SDS011;45412;54.472;18.464;2023-10-09T04:18:01;8.80;;;1.80;;
59587;SDS011;45412;54.472;18.464;2023-10-09T04:20:49;7.60;;;2.10;;
59587;SDS011;45412;54.472;18.464;2023-10-09T04:24:14;8.90;;;2.40;;
59587;SDS011;45412;54.472;18.464;2023-10-09T04:27:01;6.60;;;1.80;;
59587;SDS011;45412;54.472;18.464;2023-10-09T04:29:48;6.60;;;1.80;;
59587;SDS011;45412;54.472;18.464;2023-10-09T04:32:35;7.50;;;1.80;;
59587;SDS011;45412;54.472;18.464;2023-10-09T04:35:22;8.80;;;1.80;;
59587;SDS011;45412;54.472;18.464;2023-10-09T04:38:10;5.70;;;1.80;;
59587;SDS011;45412;54.472;18.464;2023-10-09T04:40:56;6.60;;;1.90;;
59587;SDS011;45412;54.472;18.464;2023-10-09T04:43:45;5.90;;;1.20;;
59587;SDS011;45412;54.472;18.464;2023-10-09T04:46:31;6.60;;;1.70;;
59587;SDS011;45412;54.472;18.464;2023-10-09T04:49:29;5.30;;;1.40;;
59587;SDS011;45412;54.472;18.464;2023-10-09T04:52:16;5.70;;;1.50;;
59587;SDS011;45412;54.472;18.464;2023-10-09T04:55:15;6.20;;;1.80;;
59587;SDS011;45412;54.472;18.464;2023-10-09T04:58:04;9.10;;;2.00;;
59587;SDS011;45412;54.472;18.464;2023-10-09T05:01:10;7.20;;;2.10;;
59587;SDS011;45412;54.472;18.464;2023-10-09T05:04:00;8.10;;;2.10;;
59587;SDS011;45412;54.472;18.464;2023-10-09T05:06:50;7.00;;;2.30;;
59587;SDS011;45412;54.472;18.464;2023-10-09T05:09:42;6.60;;;2.50;;
59587;SDS011;45412;54.472;18.464;2023-10-09T05:12:41;7.80;;;2.20;;
59587;SDS011;45412;54.472;18.464;2023-10-09T05:15:32;7.80;;;2.00;;
59587;SDS011;45412;54.472;18.464;2023-10-09T05:18:20;6.60;;;1.80;;
59587;SDS011;45412;54.472;18.464;2023-10-09T05:21:13;7.00;;;2.20;;
59587;SDS011;45412;54.472;18.464;2023-10-09T05:24:00;6.30;;;1.80;;
59587;SDS011;45412;54.472;18.464;2023-10-09T05:27:00;5.80;;;1.60;;
59587;SDS011;45412;54.472;18.464;2023-10-09T05:30:04;6.80;;;1.90;;
59587;SDS011;45412;54.472;18.464;2023-10-09T05:33:10;6.80;;;2.00;;
59587;SDS011;45412;54.472;18.464;2023-10-09T05:36:15;8.00;;;1.90;;
59587;SDS011;45412;54.472;18.464;2023-10-09T05:39:31;6.30;;;1.90;;
59587;SDS011;45412;54.472;18.464;2023-10-09T05:42:30;7.00;;;1.90;;
59587;SDS011;45412;54.472;18.464;2023-10-09T05:45:23;7.00;;;1.70;;
59587;SDS011;45412;54.472;18.464;2023-10-09T05:48:36;7.20;;;1.80;;
59587;SDS011;45412;54.472;18.464;2023-10-09T05:51:25;6.90;;;1.90;;
59587;SDS011;45412;54.472;18.464;2023-10-09T05:54:28;6.60;;;2.20;;
59587;SDS011;45412;54.472;18.464;2023-10-09T05:57:33;7.70;;;1.70;;
59587;SDS011;45412;54.472;18.464;2023-10-09T06:00:38;7.50;;;2.10;;
59587;SDS011;45412;54.472;18.464;2023-10-09T06:03:43;7.20;;;1.80;;
59587;SDS011;45412;54.472;18.464;2023-10-09T06:06:34;8.20;;;2.10;;
59587;SDS011;45412;54.472;18.464;2023-10-09T06:09:41;6.90;;;2.30;;
59587;SDS011;45412;54.472;18.464;2023-10-09T06:12:42;7.50;;;2.20;;
59587;SDS011;45412;54.472;18.464;2023-10-09T06:15:29;7.00;;;2.30;;
59587;SDS011;45412;54.472;18.464;2023-10-09T06:18:36;9.40;;;2.90;;
59587;SDS011;45412;54.472;18.464;2023-10-09T06:21:30;7.10;;;2.50;;
59587;SDS011;45412;54.472;18.464;2023-10-09T06:24:45;7.70;;;2.50;;
59587;SDS011;45412;54.472;18.464;2023-10-09T06:27:40;7.80;;;2.70;;
59587;SDS011;45412;54.472;18.464;2023-10-09T06:30:36;7.70;;;2.60;;
59587;SDS011;45412;54.472;18.464;2023-10-09T06:33:30;8.50;;;2.70;;
59587;SDS011;45412;54.472;18.464;2023-10-09T06:36:22;8.50;;;2.90;;
59587;SDS011;45412;54.472;18.464;2023-10-09T06:39:17;9.20;;;2.50;;
59587;SDS011;45412;54.472;18.464;2023-10-09T06:42:30;7.90;;;2.30;;
59587;SDS011;45412;54.472;18.464;2023-10-09T06:45:20;6.60;;;2.10;;
59587;SDS011;45412;54.472;18.464;2023-10-09T06:48:07;8.30;;;2.40;;
59587;SDS011;45412;54.472;18.464;2023-10-09T06:50:56;7.10;;;2.30;;
59587;SDS011;45412;54.472;18.464;2023-10-09T06:53:50;7.50;;;2.60;;
59587;SDS011;45412;54.472;18.464;2023-10-09T06:56:51;7.70;;;2.60;;
59587;SDS011;45412;54.472;18.464;2023-10-09T06:59:37;8.80;;;2.90;;
59587;SDS011;45412;54.472;18.464;2023-10-09T07:02:50;9.30;;;2.70;;
59587;SDS011;45412;54.472;18.464;2023-10-09T07:05:38;7.30;;;2.50;;
59587;SDS011;45412;54.472;18.464;2023-10-09T07:08:43;9.30;;;2.60;;
59587;SDS011;45412;54.472;18.464;2023-10-09T07:11:51;7.80;;;2.50;;
59587;SDS011;45412;54.472;18.464;2023-10-09T07:14:38;9.60;;;2.70;;
59587;SDS011;45412;54.472;18.464;2023-10-09T07:17:25;7.30;;;2.10;;
59587;SDS011;45412;54.472;18.464;2023-10-09T07:20:21;7.60;;;2.10;;
59587;SDS011;45412;54.472;18.464;2023-10-09T07:23:25;7.80;;;2.30;;
59587;SDS011;45412;54.472;18.464;2023-10-09T07:26:18;7.30;;;2.40;;
59587;SDS011;45412;54.472;18.464;2023-10-09T07:29:05;9.30;;;4.10;;
59587;SDS011;45412;54.472;18.464;2023-10-09T07:32:08;10.10;;;4.00;;
59587;SDS011;45412;54.472;18.464;2023-10-09T07:34:58;7.80;;;2.70;;
59587;SDS011;45412;54.472;18.464;2023-10-09T07:37:46;7.30;;;2.30;;
59587;SDS011;45412;54.472;18.464;2023-10-09T07:40:37;7.90;;;2.30;;
59587;SDS011;45412;54.472;18.464;2023-10-09T07:43:43;7.40;;;2.10;;
59587;SDS011;45412;54.472;18.464;2023-10-09T07:46:29;6.60;;;1.90;;
59587;SDS011;45412;54.472;18.464;2023-10-09T07:49:19;6.70;;;2.00;;
59587;SDS011;45412;54.472;18.464;2023-10-09T07:52:12;6.60;;;2.20;;
59587;SDS011;45412;54.472;18.464;2023-10-09T07:54:58;6.70;;;2.00;;
59587;SDS011;45412;54.472;18.464;2023-10-09T07:57:49;6.70;;;1.80;;
59587;SDS011;45412;54.472;18.464;2023-10-09T08:00:38;7.30;;;2.30;;
59587;SDS011;45412;54.472;18.464;2023-10-09T08:03:43;7.40;;;2.40;;
59587;SDS011;45412;54.472;18.464;2023-10-09T08:06:38;7.20;;;2.20;;
59587;SDS011;45412;54.472;18.464;2023-10-09T08:09:25;7.80;;;2.20;;
59587;SDS011;45412;54.472;18.464;2023-10-09T08:12:32;6.40;;;2.20;;
59587;SDS011;45412;54.472;18.464;2023-10-09T08:15:31;7.60;;;2.20;;
59587;SDS011;45412;54.472;18.464;2023-10-09T08:18:35;6.50;;;1.90;;
59587;SDS011;45412;54.472;18.464;2023-10-09T08:21:30;6.80;;;1.70;;
59587;SDS011;45412;54.472;18.464;2023-10-09T08:24:30;7.30;;;1.70;;
59587;SDS011;45412;54.472;18.464;2023-10-09T08:27:43;7.20;;;1.90;;
59587;SDS011;45412;54.472;18.464;2023-10-09T08:30:40;7.90;;;2.00;;
59587;SDS011;45412;54.472;18.464;2023-10-09T08:33:36;6.60;;;1.90;;
59587;SDS011;45412;54.472;18.464;2023-10-09T08:36:45;7.40;;;1.90;;
59587;SDS011;45412;54.472;18.464;2023-10-09T08:39:37;6.70;;;1.90;;
59587;SDS011;45412;54.472;18.464;2023-10-09T08:42:24;6.10;;;1.60;;
59587;SDS011;45412;54.472;18.464;2023-10-09T08:45:11;6.00;;;1.70;;
59587;SDS011;45412;54.472;18.464;2023-10-09T08:48:01;6.70;;;1.80;;
59587;SDS011;45412;54.472;18.464;2023-10-09T08:50:51;5.70;;;1.50;;
59587;SDS011;45412;54.472;18.464;2023-10-09T08:53:40;5.50;;;1.40;;
59587;SDS011;45412;54.472;18.464;2023-10-09T08:56:29;5.80;;;1.80;;
59587;SDS011;45412;54.472;18.464;2023-10-09T08:59:16;5.90;;;1.80;;
59587;SDS011;45412;54.472;18.464;2023-10-09T09:02:06;6.30;;;2.00;;
59587;SDS011;45412;54.472;18.464;2023-10-09T09:04:57;6.50;;;1.80;;
59587;SDS011;45412;54.472;18.464;2023-10-09T09:07:44;6.40;;;1.50;;
59587;SDS011;45412;54.472;18.464;2023-10-09T09:10:31;5.80;;;1.60;;
59587;SDS011;45412;54.472;18.464;2023-10-09T09:13:33;5.70;;;1.30;;
59587;SDS011;45412;54.472;18.464;2023-10-09T09:16:22;5.50;;;1.20;;
59587;SDS011;45412;54.472;18.464;2023-10-09T09:19:16;6.10;;;1.30;;
59587;SDS011;45412;54.472;18.464;2023-10-09T09:22:06;5.30;;;1.30;;
59587;SDS011;45412;54.472;18.464;2023-10-09T09:24:59;5.90;;;1.50;;
59587;SDS011;45412;54.472;18.464;2023-10-09T09:27:49;4.90;;;1.20;;
59587;SDS011;45412;54.472;18.464;2023-10-09T09:30:39;6.00;;;1.50;;
59587;SDS011;45412;54.472;18.464;2023-10-09T09:33:27;5.40;;;1.50;;
59587;SDS011;45412;54.472;18.464;2023-10-09T09:36:19;6.00;;;1.50;;
59587;SDS011;45412;54.472;18.464;2023-10-09T09:39:06;5.70;;;1.50;;
59587;SDS011;45412;54.472;18.464;2023-10-09T09:42:05;7.40;;;1.70;;
59587;SDS011;45412;54.472;18.464;2023-10-09T09:45:01;6.50;;;1.70;;
59587;SDS011;45412;54.472;18.464;2023-10-09T09:47:48;5.70;;;1.40;;
59587;SDS011;45412;54.472;18.464;2023-10-09T09:50:40;5.90;;;1.60;;
59587;SDS011;45412;54.472;18.464;2023-10-09T09:53:31;6.30;;;1.30;;
59587;SDS011;45412;54.472;18.464;2023-10-09T09:56:26;5.80;;;1.60;;
59587;SDS011;45412;54.472;18.464;2023-10-09T09:59:15;6.00;;;1.50;;
59587;SDS011;45412;54.472;18.464;2023-10-09T10:02:09;6.60;;;1.50;;
59587;SDS011;45412;54.472;18.464;2023-10-09T10:05:07;5.80;;;1.40;;
59587;SDS011;45412;54.472;18.464;2023-10-09T10:07:58;5.00;;;1.20;;
59587;SDS011;45412;54.472;18.464;2023-10-09T10:10:46;5.30;;;1.40;;
59587;SDS011;45412;54.472;18.464;2023-10-09T10:16:28;5.40;;;1.50;;
59587;SDS011;45412;54.472;18.464;2023-10-09T10:19:20;6.80;;;1.70;;
59587;SDS011;45412;54.472;18.464;2023-10-09T10:22:26;5.90;;;1.50;;
59587;SDS011;45412;54.472;18.464;2023-10-09T10:28:35;6.80;;;1.60;;
59587;SDS011;45412;54.472;18.464;2023-10-09T10:31:58;5.20;;;1.30;;
59587;SDS011;45412;54.472;18.464;2023-10-09T10:34:55;4.90;;;1.30;;
59587;SDS011;45412;54.472;18.464;2023-10-09T10:37:44;5.80;;;1.30;;
59587;SDS011;45412;54.472;18.464;2023-10-09T10:40:36;5.80;;;1.40;;
59587;SDS011;45412;54.472;18.464;2023-10-09T10:43:32;5.30;;;1.30;;
59587;SDS011;45412;54.472;18.464;2023-10-09T10:46:23;5.00;;;1.30;;
59587;SDS011;45412;54.472;18.464;2023-10-09T10:49:15;8.70;;;2.00;;
59587;SDS011;45412;54.472;18.464;2023-10-09T10:52:03;5.20;;;1.50;;
59587;SDS011;45412;54.472;18.464;2023-10-09T10:55:10;5.00;;;1.20;;
59587;SDS011;45412;54.472;18.464;2023-10-09T10:58:24;5.60;;;1.40;;
59587;SDS011;45412;54.472;18.464;2023-10-09T11:01:10;5.00;;;1.20;;
59587;SDS011;45412;54.472;18.464;2023-10-09T11:04:10;5.40;;;1.40;;
59587;SDS011;45412;54.472;18.464;2023-10-09T11:07:00;4.60;;;1.10;;
59587;SDS011;45412;54.472;18.464;2023-10-09T11:09:57;4.80;;;1.20;;
59587;SDS011;45412;54.472;18.464;2023-10-09T11:12:50;5.20;;;1.30;;
59587;SDS011;45412;54.472;18.464;2023-10-09T11:15:39;5.80;;;1.40;;
59587;SDS011;45412;54.472;18.464;2023-10-09T11:18:38;5.50;;;1.50;;
59587;SDS011;45412;54.472;18.464;2023-10-09T11:21:29;5.30;;;1.20;;
59587;SDS011;45412;54.472;18.464;2023-10-09T11:24:18;4.90;;;1.10;;
59587;SDS011;45412;54.472;18.464;2023-10-09T11:27:10;5.00;;;1.00;;
59587;SDS011;45412;54.472;18.464;2023-10-09T11:30:05;7.20;;;1.20;;
59587;SDS011;45412;54.472;18.464;2023-10-09T11:33:05;16.50;;;2.30;;
59587;SDS011;45412;54.472;18.464;2023-10-09T11:35:56;13.50;;;1.40;;
59587;SDS011;45412;54.472;18.464;2023-10-09T11:38:43;5.20;;;1.00;;
59587;SDS011;45412;54.472;18.464;2023-10-09T11:41:31;5.00;;;1.00;;
59587;SDS011;45412;54.472;18.464;2023-10-09T11:44:34;6.40;;;1.10;;
59587;SDS011;45412;54.472;18.464;2023-10-09T11:47:41;6.90;;;1.20;;
59587;SDS011;45412;54.472;18.464;2023-10-09T11:50:47;5.90;;;1.00;;
59587;SDS011;45412;54.472;18.464;2023-10-09T11:53:41;4.30;;;0.90;;
59587;SDS011;45412;54.472;18.464;2023-10-09T11:56:35;5.80;;;1.10;;
59587;SDS011;45412;54.472;18.464;2023-10-09T11:59:22;5.50;;;1.10;;
59587;SDS011;45412;54.472;18.464;2023-10-09T12:02:09;6.80;;;1.30;;
59587;SDS011;45412;54.472;18.464;2023-10-09T12:04:59;4.90;;;1.10;;
59587;SDS011;45412;54.472;18.464;2023-10-09T12:07:46;4.50;;;1.00;;
59587;SDS011;45412;54.472;18.464;2023-10-09T12:10:40;4.60;;;1.20;;
59587;SDS011;45412;54.472;18.464;2023-10-09T12:13:26;6.00;;;1.50;;
59587;SDS011;45412;54.472;18.464;2023-10-09T12:16:12;5.50;;;1.30;;
59587;SDS011;45412;54.472;18.464;2023-10-09T12:19:01;5.20;;;1.30;;
59587;SDS011;45412;54.472;18.464;2023-10-09T12:21:48;4.60;;;0.90;;
59587;SDS011;45412;54.472;18.464;2023-10-09T12:24:36;5.40;;;1.20;;
59587;SDS011;45412;54.472;18.464;2023-10-09T12:27:24;5.00;;;1.20;;
59587;SDS011;45412;54.472;18.464;2023-10-09T12:30:10;4.90;;;1.20;;
59587;SDS011;45412;54.472;18.464;2023-10-09T12:32:57;5.10;;;1.00;;
59587;SDS011;45412;54.472;18.464;2023-10-09T12:35:44;5.30;;;1.20;;
59587;SDS011;45412;54.472;18.464;2023-10-09T12:38:31;4.60;;;1.00;;
59587;SDS011;45412;54.472;18.464;2023-10-09T12:41:17;5.30;;;1.40;;
59587;SDS011;45412;54.472;18.464;2023-10-09T12:44:13;5.60;;;1.10;;
59587;SDS011;45412;54.472;18.464;2023-10-09T12:47:08;5.60;;;1.30;;
59587;SDS011;45412;54.472;18.464;2023-10-09T12:49:57;5.10;;;1.30;;
59587;SDS011;45412;54.472;18.464;2023-10-09T12:52:43;5.50;;;1.40;;
59587;SDS011;45412;54.472;18.464;2023-10-09T12:55:30;6.60;;;1.50;;
59587;SDS011;45412;54.472;18.464;2023-10-09T12:58:20;5.30;;;1.50;;
59587;SDS011;45412;54.472;18.464;2023-10-09T13:01:07;5.50;;;1.30;;
59587;SDS011;45412;54.472;18.464;2023-10-09T13:04:00;5.00;;;1.50;;
59587;SDS011;45412;54.472;18.464;2023-10-09T13:06:57;5.40;;;1.30;;
59587;SDS011;45412;54.472;18.464;2023-10-09T13:09:49;6.30;;;1.40;;
59587;SDS011;45412;54.472;18.464;2023-10-09T13:12:54;4.90;;;1.30;;
59587;SDS011;45412;54.472;18.464;2023-10-09T13:15:43;4.60;;;1.20;;
59587;SDS011;45412;54.472;18.464;2023-10-09T13:18:30;5.60;;;1.40;;
59587;SDS011;45412;54.472;18.464;2023-10-09T13:21:19;6.90;;;2.00;;
59587;SDS011;45412;54.472;18.464;2023-10-09T13:24:06;5.30;;;1.30;;
59587;SDS011;45412;54.472;18.464;2023-10-09T13:27:00;6.00;;;1.20;;
59587;SDS011;45412;54.472;18.464;2023-10-09T13:29:50;4.50;;;1.00;;
59587;SDS011;45412;54.472;18.464;2023-10-09T13:32:37;5.40;;;1.30;;
59587;SDS011;45412;54.472;18.464;2023-10-09T13:35:24;5.60;;;1.30;;
59587;SDS011;45412;54.472;18.464;2023-10-09T13:38:23;5.40;;;1.50;;
59587;SDS011;45412;54.472;18.464;2023-10-09T13:41:13;6.30;;;1.50;;
59587;SDS011;45412;54.472;18.464;2023-10-09T13:44:00;7.00;;;1.50;;
59587;SDS011;45412;54.472;18.464;2023-10-09T13:46:49;6.00;;;1.70;;
59587;SDS011;45412;54.472;18.464;2023-10-09T13:49:36;5.20;;;1.30;;
59587;SDS011;45412;54.472;18.464;2023-10-09T13:52:27;5.80;;;1.50;;
59587;SDS011;45412;54.472;18.464;2023-10-09T13:55:13;6.00;;;1.50;;
59587;SDS011;45412;54.472;18.464;2023-10-09T13:58:03;5.50;;;1.50;;
59587;SDS011;45412;54.472;18.464;2023-10-09T14:00:56;5.40;;;1.40;;
59587;SDS011;45412;54.472;18.464;2023-10-09T14:03:43;6.10;;;1.30;;
59587;SDS011;45412;54.472;18.464;2023-10-09T14:06:35;5.50;;;1.30;;
59587;SDS011;45412;54.472;18.464;2023-10-09T14:09:24;5.20;;;1.40;;
59587;SDS011;45412;54.472;18.464;2023-10-09T14:12:31;6.10;;;1.60;;
59587;SDS011;45412;54.472;18.464;2023-10-09T14:15:20;5.60;;;1.60;;
59587;SDS011;45412;54.472;18.464;2023-10-09T14:18:07;5.00;;;1.50;;
59587;SDS011;45412;54.472;18.464;2023-10-09T14:21:01;7.00;;;1.60;;
59587;SDS011;45412;54.472;18.464;2023-10-09T14:23:50;5.30;;;1.40;;
59587;SDS011;45412;54.472;18.464;2023-10-09T14:26:37;6.20;;;1.90;;
59587;SDS011;45412;54.472;18.464;2023-10-09T14:29:24;6.10;;;1.60;;
59587;SDS011;45412;54.472;18.464;2023-10-09T14:32:12;7.00;;;1.70;;
59587;SDS011;45412;54.472;18.464;2023-10-09T14:35:02;6.20;;;2.10;;
59587;SDS011;45412;54.472;18.464;2023-10-09T14:37:58;6.00;;;1.80;;
59587;SDS011;45412;54.472;18.464;2023-10-09T14:40:47;6.60;;;1.90;;
59587;SDS011;45412;54.472;18.464;2023-10-09T14:43:33;6.00;;;1.80;;
59587;SDS011;45412;54.472;18.464;2023-10-09T14:46:20;7.80;;;2.40;;
59587;SDS011;45412;54.472;18.464;2023-10-09T14:49:11;7.70;;;2.10;;
59587;SDS011;45412;54.472;18.464;2023-10-09T14:52:01;7.90;;;1.90;;
59587;SDS011;45412;54.472;18.464;2023-10-09T14:54:47;6.90;;;1.80;;
59587;SDS011;45412;54.472;18.464;2023-10-09T14:57:36;8.20;;;2.00;;
59587;SDS011;45412;54.472;18.464;2023-10-09T15:00:22;7.40;;;1.90;;
59587;SDS011;45412;54.472;18.464;2023-10-09T15:03:13;7.30;;;1.70;;
59587;SDS011;45412;54.472;18.464;2023-10-09T15:06:00;7.30;;;1.90;;
59587;SDS011;45412;54.472;18.464;2023-10-09T15:08:47;8.20;;;1.90;;
59587;SDS011;45412;54.472;18.464;2023-10-09T15:11:33;6.90;;;1.90;;
59587;SDS011;45412;54.472;18.464;2023-10-09T15:14:20;8.30;;;2.10;;
59587;SDS011;45412;54.472;18.464;2023-10-09T15:17:07;7.20;;;2.30;;
59587;SDS011;45412;54.472;18.464;2023-10-09T15:19:54;7.30;;;2.50;;
59587;SDS011;45412;54.472;18.464;2023-10-09T15:22:43;7.10;;;2.10;;
59587;SDS011;45412;54.472;18.464;2023-10-09T15:25:30;9.70;;;3.00;;
59587;SDS011;45412;54.472;18.464;2023-10-09T15:28:21;11.30;;;3.90;;
59587;SDS011;45412;54.472;18.464;2023-10-09T15:31:08;10.80;;;3.90;;
59587;SDS011;45412;54.472;18.464;2023-10-09T15:33:57;8.70;;;4.10;;
59587;SDS011;45412;54.472;18.464;2023-10-09T15:36:44;12.70;;;6.70;;
59587;SDS011;45412;54.472;18.464;2023-10-09T15:39:36;11.60;;;6.40;;
59587;SDS011;45412;54.472;18.464;2023-10-09T15:42:23;15.50;;;7.90;;
59587;SDS011;45412;54.472;18.464;2023-10-09T15:45:09;17.10;;;7.50;;
59587;SDS011;45412;54.472;18.464;2023-10-09T15:47:58;13.70;;;7.20;;
59587;SDS011;45412;54.472;18.464;2023-10-09T15:50:50;16.30;;;7.80;;
59587;SDS011;45412;54.472;18.464;2023-10-09T15:53:37;11.20;;;5.30;;
59587;SDS011;45412;54.472;18.464;2023-10-09T15:56:24;12.50;;;5.30;;
59587;SDS011;45412;54.472;18.464;2023-10-09T15:59:11;12.70;;;6.00;;
59587;SDS011;45412;54.472;18.464;2023-10-09T16:01:58;12.20;;;5.80;;
59587;SDS011;45412;54.472;18.464;2023-10-09T16:04:45;12.30;;;5.80;;
59587;SDS011;45412;54.472;18.464;2023-10-09T16:07:31;14.50;;;6.10;;
59587;SDS011;45412;54.472;18.464;2023-10-09T16:10:19;13.20;;;5.90;;
59587;SDS011;45412;54.472;18.464;2023-10-09T16:13:06;14.10;;;6.30;;
59587;SDS011;45412;54.472;18.464;2023-10-09T16:15:59;15.70;;;7.20;;
59587;SDS011;45412;54.472;18.464;2023-10-09T16:18:46;20.70;;;9.00;;
59587;SDS011;45412;54.472;18.464;2023-10-09T16:21:33;19.40;;;8.60;;
59587;SDS011;45412;54.472;18.464;2023-10-09T16:24:21;17.50;;;8.00;;
59587;SDS011;45412;54.472;18.464;2023-10-09T16:27:07;19.00;;;8.60;;
59587;SDS011;45412;54.472;18.464;2023-10-09T16:29:54;18.00;;;8.50;;
59587;SDS011;45412;54.472;18.464;2023-10-09T16:32:40;16.10;;;7.60;;
59587;SDS011;45412;54.472;18.464;2023-10-09T16:35:27;14.20;;;6.90;;
59587;SDS011;45412;54.472;18.464;2023-10-09T16:38:13;15.50;;;6.90;;
59587;SDS011;45412;54.472;18.464;2023-10-09T16:41:00;14.10;;;6.70;;
59587;SDS011;45412;54.472;18.464;2023-10-09T16:43:53;14.60;;;6.70;;
59587;SDS011;45412;54.472;18.464;2023-10-09T16:46:43;14.70;;;6.40;;
59587;SDS011;45412;54.472;18.464;2023-10-09T16:49:33;18.60;;;8.30;;
59587;SDS011;45412;54.472;18.464;2023-10-09T16:52:19;16.60;;;6.60;;
59587;SDS011;45412;54.472;18.464;2023-10-09T16:55:06;20.60;;;8.80;;
59587;SDS011;45412;54.472;18.464;2023-10-09T16:57:56;15.80;;;8.60;;
59587;SDS011;45412;54.472;18.464;2023-10-09T17:00:42;23.40;;;12.70;;
59587;SDS011;45412;54.472;18.464;2023-10-09T17:03:31;23.70;;;13.10;;
59587;SDS011;45412;54.472;18.464;2023-10-09T17:06:18;28.90;;;15.40;;